createdAt,value
2023-04-20T00:12:16.240Z,10.18
2023-04-20T00:17:19.702Z,12.07
2023-04-20T00:22:25.329Z,8.85
2023-04-20T00:27:29.281Z,9.05
2023-04-20T00:32:32.561Z,8.38
2023-04-20T00:37:37.576Z,8.38
2023-04-20T00:42:41.758Z,8.95
2023-04-20T00:47:46.287Z,8.88
2023-04-20T00:52:51.148Z,11.17
2023-04-20T00:57:54.869Z,8.03
2023-04-20T01:02:58.531Z,10.30
2023-04-20T01:08:03.347Z,7.25
2023-04-20T01:13:06.639Z,10.30
2023-04-20T01:18:10.246Z,9.80
2023-04-20T01:23:16.075Z,10.30
2023-04-20T01:28:21.302Z,9.00
2023-04-20T01:33:24.587Z,8.70
2023-04-20T01:38:32.240Z,7.10
2023-04-20T01:43:38.905Z,8.55
2023-04-20T01:48:42.211Z,6.83
2023-04-20T01:53:46.903Z,7.63
2023-04-20T01:58:50.195Z,6.93
2023-04-20T02:03:53.660Z,6.50
2023-04-20T02:08:59.126Z,6.50
2023-04-20T02:14:02.491Z,7.53
2023-04-20T02:19:06.482Z,7.20
2023-04-20T02:24:11.344Z,7.03
2023-04-20T02:29:14.661Z,7.75
2023-04-20T02:34:17.945Z,7.77
2023-04-20T02:39:22.613Z,6.97
2023-04-20T02:44:26.024Z,7.00
2023-04-20T02:49:29.556Z,7.70
2023-04-20T02:54:35.920Z,8.40
2023-04-20T02:59:39.514Z,8.33
2023-04-20T03:04:51.509Z,12.13
2023-04-20T03:09:59.723Z,11.43
2023-04-20T03:15:25.980Z,9.60
2023-04-20T03:20:38.888Z,9.20
2023-04-20T03:25:44.839Z,10.43
2023-04-20T03:30:59.510Z,11.00
2023-04-20T03:36:06.604Z,10.23
2023-04-20T03:41:11.493Z,9.93
2023-04-20T03:46:15.179Z,9.38
2023-04-20T03:51:18.507Z,10.60
2023-04-20T03:56:23.232Z,10.50
2023-04-20T04:01:28.897Z,10.93
2023-04-20T04:06:33.448Z,14.27
2023-04-20T04:11:38.125Z,11.43
2023-04-20T04:16:42.818Z,12.82
2023-04-20T04:21:47.549Z,11.63
2023-04-20T04:26:56.430Z,12.07
2023-04-20T04:32:01.888Z,11.43
2023-04-20T04:37:05.659Z,10.32
2023-04-20T04:42:22.524Z,10.20
2023-04-20T04:47:25.836Z,10.17
2023-04-20T04:52:29.478Z,13.02
2023-04-20T04:57:34.252Z,14.32
2023-04-20T05:02:37.899Z,14.38
2023-04-20T05:07:41.404Z,11.53
2023-04-20T05:12:46.452Z,13.98
2023-04-20T05:17:51.256Z,11.77
2023-04-20T05:22:54.587Z,11.00
2023-04-20T05:27:59.272Z,10.60
2023-04-20T05:33:02.995Z,9.38
2023-04-20T05:38:06.389Z,8.77
2023-04-20T05:43:11.119Z,8.93
2023-04-20T05:48:14.429Z,8.65
2023-04-20T05:53:17.807Z,8.13
2023-04-20T05:58:22.558Z,7.93
2023-04-20T06:03:26.155Z,7.67
2023-04-20T06:08:29.535Z,7.53
2023-04-20T06:13:34.218Z,6.90
2023-04-20T06:18:37.654Z,7.50
2023-04-20T06:23:41.052Z,8.57
2023-04-20T06:28:47.366Z,6.88
2023-04-20T06:33:50.680Z,7.85
2023-04-20T06:38:54.556Z,7.43
2023-04-20T06:43:59.263Z,6.85
2023-04-20T06:49:03.143Z,7.50
2023-04-20T06:54:06.405Z,7.70
2023-04-20T06:59:11.088Z,7.85
2023-04-20T07:04:14.383Z,8.00
2023-04-20T07:09:19.579Z,9.90
2023-04-20T07:14:24.355Z,7.63
2023-04-20T07:19:27.662Z,7.25
2023-04-20T07:24:30.881Z,8.88
2023-04-20T07:29:35.518Z,9.02
2023-04-20T07:34:38.791Z,9.50
2023-04-20T07:39:42.119Z,8.85
2023-04-20T07:44:46.865Z,9.18
2023-04-20T07:49:50.266Z,8.20
2023-04-20T07:54:54.855Z,7.40
2023-04-20T07:59:59.483Z,7.50
2023-04-20T08:05:03.913Z,9.27
2023-04-20T08:10:10.615Z,7.60
2023-04-20T08:15:15.488Z,7.50
2023-04-20T08:20:18.879Z,7.35
2023-04-20T08:25:23.662Z,6.85
2023-04-20T08:30:29.912Z,8.20
2023-04-20T08:35:33.153Z,7.25
2023-04-20T08:40:38.376Z,6.25
2023-04-20T08:45:46.715Z,7.68
2023-04-20T08:50:50.926Z,6.70
2023-04-20T08:55:56.840Z,7.82
2023-04-20T09:01:02.155Z,7.17
2023-04-20T09:06:06.672Z,7.80
2023-04-20T09:11:22.540Z,7.60
2023-04-20T09:16:27.323Z,7.40
2023-04-20T09:21:31.441Z,7.88
2023-04-20T09:26:35.517Z,6.88
2023-04-20T09:31:40.158Z,7.80
2023-04-20T09:36:44.837Z,8.85
2023-04-20T09:41:49.051Z,6.80
2023-04-20T09:46:54.220Z,7.20
2023-04-20T09:51:59.131Z,7.57
2023-04-20T09:57:03.511Z,7.75
2023-04-20T10:02:12.571Z,8.98
2023-04-20T10:07:25.413Z,7.55
2023-04-20T10:12:28.894Z,9.30
2023-04-20T10:17:34.946Z,10.17
2023-04-20T10:22:39.195Z,10.37
2023-04-20T10:27:54.290Z,7.80
2023-04-20T10:33:10.367Z,7.00
2023-04-20T10:38:13.843Z,7.05
2023-04-20T10:43:22.377Z,6.00
2023-04-20T10:48:27.101Z,6.50
2023-04-20T10:53:30.558Z,5.93
2023-04-20T10:58:33.998Z,6.80
2023-04-20T11:03:38.958Z,5.75
2023-04-20T11:08:43.852Z,5.33
2023-04-20T11:13:47.248Z,5.35
2023-04-20T11:18:53.413Z,5.20
2023-04-20T11:23:57.232Z,4.78
2023-04-20T11:29:00.515Z,4.43
2023-04-20T11:34:07.882Z,4.97
2023-04-20T11:39:13.424Z,4.43
2023-04-20T11:44:16.687Z,3.47
2023-04-20T11:49:22.193Z,3.45
2023-04-20T11:54:27.368Z,3.00
2023-04-20T11:59:30.817Z,3.50
2023-04-20T12:04:36.198Z,3.10
2023-04-20T12:09:40.513Z,3.28
2023-04-20T12:14:44.095Z,2.80
2023-04-20T12:19:48.958Z,2.80
2023-04-20T12:24:52.330Z,3.13
2023-04-20T12:29:55.704Z,4.28
2023-04-20T12:35:00.578Z,3.75
2023-04-20T12:40:06.435Z,3.72
2023-04-20T12:45:10.882Z,3.20
2023-04-20T12:50:15.948Z,2.83
2023-04-20T12:55:19.650Z,3.60
2023-04-20T13:00:23.663Z,2.53
2023-04-20T13:05:29.366Z,2.78
2023-04-20T13:10:32.781Z,2.88
2023-04-20T13:15:39.504Z,3.58
2023-04-20T13:20:44.588Z,2.70
2023-04-20T13:25:47.908Z,3.08
2023-04-20T13:30:51.233Z,3.25
2023-04-20T13:35:56.061Z,2.70
2023-04-20T13:40:59.362Z,3.03
2023-04-20T13:46:02.686Z,3.67
2023-04-20T13:51:07.685Z,3.78
2023-04-20T13:56:10.989Z,3.27
2023-04-20T14:01:15.848Z,2.70
2023-04-20T14:06:20.964Z,3.60
2023-04-20T14:11:24.432Z,7.00
2023-04-20T14:16:27.840Z,5.93
2023-04-20T14:21:33.967Z,6.13
2023-04-20T14:26:37.230Z,5.93
2023-04-20T14:31:40.573Z,6.45
2023-04-20T14:36:45.265Z,6.80
2023-04-20T14:41:48.514Z,6.50
2023-04-20T14:46:51.997Z,7.43
2023-04-20T14:51:56.761Z,6.30
2023-04-20T14:57:00.030Z,7.13
2023-04-20T15:02:03.801Z,7.75
2023-04-20T15:07:08.582Z,7.33
2023-04-20T15:12:12.209Z,7.35
2023-04-20T15:17:15.807Z,8.38
2023-04-20T15:22:20.789Z,8.68
2023-04-20T15:27:24.092Z,8.80
2023-04-20T15:32:27.531Z,8.00
2023-04-20T15:37:32.261Z,8.65
2023-04-20T15:42:35.916Z,8.55
2023-04-20T15:47:39.215Z,8.73
2023-04-20T15:52:43.914Z,8.65
2023-04-20T15:57:47.239Z,9.60
2023-04-20T16:02:51.363Z,9.80
2023-04-20T16:07:56.138Z,9.70
2023-04-20T16:12:59.492Z,9.83
2023-04-20T16:18:04.932Z,9.47
2023-04-20T16:23:09.841Z,10.32
2023-04-20T16:28:13.103Z,11.32
2023-04-20T16:33:16.467Z,12.18
2023-04-20T16:38:21.477Z,12.15
2023-04-20T16:43:24.760Z,10.02
2023-04-20T16:48:28.117Z,10.43
2023-04-20T16:53:32.806Z,10.70
2023-04-20T16:58:36.229Z,10.68
2023-04-20T17:03:39.848Z,10.87
2023-04-20T17:08:47.338Z,11.20
2023-04-20T17:13:50.755Z,10.23
2023-04-20T17:18:54.826Z,10.15
2023-04-20T17:23:59.788Z,10.63
2023-04-20T17:29:04.371Z,9.88
2023-04-20T17:34:08.627Z,10.17
2023-04-20T17:39:13.858Z,10.17
2023-04-20T17:44:17.398Z,9.63
2023-04-20T17:49:21.023Z,10.15
2023-04-20T17:54:25.751Z,9.18
2023-04-20T17:59:30.852Z,9.60
2023-04-20T18:04:34.813Z,10.50
2023-04-20T18:09:39.904Z,10.20
2023-04-20T18:14:44.202Z,10.43
2023-04-20T18:19:47.476Z,10.40
2023-04-20T18:24:52.201Z,10.27
2023-04-20T18:29:56.122Z,9.82
2023-04-20T18:35:00.454Z,9.53
2023-04-20T18:40:06.158Z,9.27
2023-04-20T18:45:11.431Z,9.63
2023-04-20T18:50:15.373Z,11.00
2023-04-20T18:55:20.214Z,10.18
2023-04-20T19:00:24.225Z,10.33
2023-04-20T19:05:27.669Z,12.02
2023-04-20T19:10:32.679Z,11.20
2023-04-20T19:15:35.960Z,12.43
2023-04-20T19:20:39.329Z,11.63
2023-04-20T19:25:44.040Z,14.63
2023-04-20T19:30:47.638Z,16.98
2023-04-20T19:35:51.650Z,18.80
2023-04-20T19:40:56.342Z,17.85
2023-04-20T19:46:00.112Z,17.95
2023-04-20T19:51:04.093Z,17.80
2023-04-20T19:56:08.831Z,16.60
2023-04-20T20:01:12.181Z,15.00
2023-04-20T20:06:15.881Z,15.32
2023-04-20T20:11:22.265Z,14.77
2023-04-20T20:16:28.209Z,13.23
2023-04-20T20:21:31.669Z,13.48
2023-04-20T20:26:36.504Z,13.90
2023-04-20T20:31:39.815Z,14.85
2023-04-20T20:36:44.866Z,14.20
2023-04-20T20:41:51.371Z,14.00
2023-04-20T20:46:55.110Z,16.47
2023-04-20T20:51:58.517Z,13.40
2023-04-20T20:57:03.371Z,13.70
2023-04-20T21:02:06.878Z,13.20
2023-04-20T21:07:11.176Z,13.10
2023-04-20T21:12:16.016Z,12.77
2023-04-20T21:17:19.536Z,12.07
2023-04-20T21:22:23.324Z,13.87
2023-04-20T21:32:31.325Z,12.80
2023-04-20T21:37:34.665Z,14.10
2023-04-20T21:42:39.650Z,12.75
2023-04-20T21:47:43.133Z,11.02
2023-04-20T21:52:46.695Z,11.40
2023-04-20T21:57:51.696Z,10.37
2023-04-20T22:02:55.304Z,10.57
2023-04-20T22:07:59.054Z,10.77
2023-04-20T22:13:04.078Z,12.27
2023-04-20T22:18:11.282Z,13.88
2023-04-20T22:23:15.104Z,14.00
2023-04-20T22:28:20.122Z,14.70
2023-04-20T22:33:23.554Z,13.50
2023-04-20T22:38:26.888Z,13.95
2023-04-20T22:43:31.625Z,12.60
2023-04-20T22:48:35.306Z,11.27
2023-04-20T22:53:38.605Z,13.20
2023-04-20T22:58:43.329Z,10.63
2023-04-20T23:03:46.730Z,10.05
2023-04-20T23:08:50.657Z,11.57
2023-04-20T23:13:55.411Z,12.60
2023-04-20T23:18:58.773Z,12.73
2023-04-20T23:24:02.157Z,12.35
2023-04-20T23:29:06.913Z,13.50
2023-04-20T23:34:10.271Z,13.02
2023-04-20T23:39:13.663Z,13.55
2023-04-20T23:44:18.450Z,12.15
2023-04-20T23:49:21.844Z,11.95
2023-04-20T23:54:25.261Z,12.07
2023-04-20T23:59:30.465Z,14.40
